Time;durP1;ratioP1;P1;durP2;ratioP2;P2;SDS_P1;SDS_P2;PMS_P1;PMS_P2;Temp;Humidity;BMP_temperature;BMP_pressure;BME280_temperature;BME280_humidity;BME280_pressure;Samples;Min_cycle;Max_cycle;Signal;HPM_P1;HPM_P2
2022/08/11 00:01:45;;;;;;;1999.90;999.90;;;15.70;99.90;;;;;;5131031;27;20043;-74
2022/08/11 00:04:12;;;;;;;1999.90;999.90;;;15.60;99.90;;;;;;5122055;27;20055;-74
2022/08/11 00:06:39;;;;;;;1999.90;999.90;;;15.60;99.90;;;;;;5131378;27;20035;-74
2022/08/11 00:09:10;;;;;;;1999.90;999.90;;;15.60;99.90;;;;;;5126468;27;20047;-75
2022/08/11 00:11:48;;;;;;;1999.90;999.90;;;15.60;99.90;;;;;;5131324;27;20030;-74
2022/08/11 00:14:15;;;;;;;1999.90;999.90;;;15.50;99.90;;;;;;5129842;27;20039;-74
2022/08/11 00:16:42;;;;;;;1999.90;999.90;;;15.50;99.90;;;;;;5125837;27;20074;-74
2022/08/11 00:19:10;;;;;;;1999.90;999.90;;;15.50;99.90;;;;;;5125054;27;20035;-74
2022/08/11 00:21:41;;;;;;;1999.90;999.90;;;15.50;99.90;;;;;;5126976;27;20118;-74
2022/08/11 00:24:07;;;;;;;1999.90;999.90;;;15.50;99.90;;;;;;5127473;27;20394;-74
2022/08/11 00:26:35;;;;;;;1999.90;999.90;;;15.50;99.90;;;;;;5131595;27;20146;-74
2022/08/11 00:29:11;;;;;;;1999.90;999.90;;;15.50;99.90;;;;;;5128806;27;20054;-74
2022/08/11 00:31:42;;;;;;;1999.90;999.90;;;15.50;99.90;;;;;;5125015;27;20047;-74
2022/08/11 00:34:10;;;;;;;1999.90;999.90;;;15.40;99.90;;;;;;5130797;27;20080;-74
2022/08/11 00:36:47;;;;;;;1999.90;999.90;;;15.40;99.90;;;;;;5113020;27;20087;-74
2022/08/11 00:39:14;;;;;;;1999.90;999.90;;;15.30;99.90;;;;;;5131052;27;20066;-74
2022/08/11 00:41:49;;;;;;;1999.90;999.90;;;15.30;99.90;;;;;;5131295;27;20493;-74
2022/08/11 00:44:27;;;;;;;1999.90;999.90;;;15.20;99.90;;;;;;5126154;27;21208;-74
2022/08/11 00:46:58;;;;;;;1999.90;999.90;;;15.20;99.90;;;;;;5112507;27;20043;-74
2022/08/11 00:49:33;;;;;;;1999.90;999.90;;;15.10;99.90;;;;;;5125943;27;20387;-74
2022/08/11 00:52:08;;;;;;;1999.90;999.90;;;15.10;99.90;;;;;;5093614;27;20038;-74
2022/08/11 00:55:25;;;;;;;1999.90;999.90;;;15.10;99.90;;;;;;5130431;27;20051;-74
2022/08/11 00:58:28;;;;;;;1999.90;999.90;;;15.10;99.90;;;;;;5074398;27;20054;-74
2022/08/11 01:01:12;;;;;;;;;;;15.10;99.90;;;;;;5131201;27;20046;-74
2022/08/11 01:04:08;;;;;;;1999.90;999.90;;;15.00;99.90;;;;;;5119781;27;19923;-74
2022/08/11 01:06:48;;;;;;;1999.90;999.90;;;15.00;99.90;;;;;;5092873;27;20031;-74
2022/08/11 01:09:29;;;;;;;1999.90;999.90;;;15.00;99.90;;;;;;5111934;27;20122;-74
2022/08/11 01:12:34;;;;;;;1999.90;999.90;;;14.90;99.90;;;;;;5129637;27;20458;-74
2022/08/11 01:15:00;;;;;;;1999.90;999.90;;;14.90;99.90;;;;;;5099548;27;20047;-74
2022/08/11 01:17:25;;;;;;;1999.90;999.90;;;14.80;99.90;;;;;;5078494;28;20040;-74
2022/08/11 01:20:21;;;;;;;1999.90;999.90;;;14.80;99.90;;;;;;5122973;27;20066;-74
2022/08/11 01:23:07;;;;;;;1999.90;999.90;;;14.80;99.90;;;;;;5111341;27;20043;-74
2022/08/11 01:26:13;;;;;;;1999.90;999.90;;;14.80;99.90;;;;;;5119965;27;20070;-73
2022/08/11 01:28:41;;;;;;;1999.90;999.90;;;14.80;99.90;;;;;;5127682;27;20038;-74
2022/08/11 01:31:26;;;;;;;1999.90;999.90;;;14.80;99.90;;;;;;5130733;27;20039;-74
2022/08/11 01:34:22;;;;;;;1999.90;999.90;;;14.70;99.90;;;;;;5110448;27;20482;-74
2022/08/11 01:37:01;;;;;;;1999.90;999.90;;;14.70;99.90;;;;;;5124998;27;20046;-73
2022/08/11 01:39:30;;;;;;;1999.90;999.90;;;14.70;99.90;;;;;;5123822;27;20059;-74
2022/08/11 01:45:40;;;;;;;1999.90;999.90;;;14.70;99.90;;;;;;5127611;27;20430;-74
2022/08/11 01:48:34;;;;;;;1999.90;999.90;;;14.60;99.90;;;;;;5116821;27;20395;-74
2022/08/11 01:51:00;;;;;;;1999.90;999.90;;;14.60;99.90;;;;;;5130114;27;20039;-74
2022/08/11 01:53:46;;;;;;;1999.90;999.90;;;14.60;99.90;;;;;;5122282;27;20039;-73
2022/08/11 01:56:37;;;;;;;1999.90;999.90;;;14.60;99.90;;;;;;5130054;27;20042;-74
2022/08/11 01:59:23;;;;;;;1999.90;999.90;;;14.60;99.90;;;;;;5128313;27;20047;-74
2022/08/11 02:01:57;;;;;;;1999.90;999.90;;;14.50;99.90;;;;;;5125155;27;20053;-74
2022/08/11 02:04:32;;;;;;;1999.90;999.90;;;14.50;99.90;;;;;;5129807;27;20046;-74
2022/08/11 02:07:30;;;;;;;1999.90;999.90;;;14.50;99.90;;;;;;5103414;27;20551;-74
2022/08/11 02:13:41;;;;;;;1999.90;999.90;;;14.40;99.90;;;;;;5124638;27;20517;-74
2022/08/11 02:16:47;;;;;;;1999.90;999.90;;;14.40;99.90;;;;;;5122833;27;20039;-74
2022/08/11 02:25:12;;;;;;;1999.90;999.90;;;14.30;99.90;;;;;;5129317;27;20043;-74
2022/08/11 02:27:47;;;;;;;1999.90;999.90;;;14.30;99.90;;;;;;5114583;27;20050;-74
2022/08/11 02:30:15;;;;;;;1999.90;999.90;;;14.30;99.90;;;;;;5108954;28;20136;-74
2022/08/11 02:36:09;;;;;;;1999.90;999.90;;;14.20;99.90;;;;;;5024481;28;20048;-74
2022/08/11 02:39:04;;;;;;;1999.90;999.90;;;14.20;99.90;;;;;;5034601;28;20152;-74
2022/08/11 02:44:55;;;;;;;1999.90;999.90;;;14.10;99.90;;;;;;5032705;28;20390;-74
2022/08/11 02:51:01;;;;;;;1999.90;999.90;;;14.10;99.90;;;;;;5021779;28;20050;-74
2022/08/11 02:53:43;;;;;;;1999.90;999.90;;;14.00;99.90;;;;;;5027854;28;20128;-74
2022/08/11 02:56:21;;;;;;;1999.90;999.90;;;14.00;99.90;;;;;;5012703;28;20045;-74
2022/08/11 03:02:31;;;;;;;1999.90;999.90;;;14.10;99.90;;;;;;5028590;28;20041;-74
2022/08/11 03:05:10;;;;;;;1999.90;999.90;;;14.00;99.90;;;;;;5031650;28;20501;-74
2022/08/11 03:07:38;;;;;;;1999.90;999.90;;;14.00;99.90;;;;;;5015451;28;20600;-74
2022/08/11 03:10:35;;;;;;;1999.90;999.90;;;14.00;99.90;;;;;;5078023;27;20118;-74
2022/08/11 03:19:01;;;;;;;1999.90;999.90;;;14.00;99.90;;;;;;5130421;27;20046;-74
2022/08/11 03:21:38;;;;;;;1999.90;999.90;;;14.10;99.90;;;;;;5132792;27;20525;-74
2022/08/11 03:24:30;;;;;;;1999.90;999.90;;;14.00;99.90;;;;;;5132185;27;20047;-74
2022/08/11 03:27:09;;;;;;;1999.90;999.90;;;14.00;99.90;;;;;;5083394;27;20042;-74
2022/08/11 03:30:00;;;;;;;1999.90;999.90;;;14.00;99.90;;;;;;5118123;27;20142;-74
2022/08/11 03:32:31;;;;;;;1999.90;999.90;;;14.00;99.90;;;;;;5128275;27;20122;-74
2022/08/11 03:35:00;;;;;;;1999.90;999.90;;;14.00;99.90;;;;;;5114039;27;20141;-74
2022/08/11 03:37:50;;;;;;;1999.90;999.90;;;13.90;99.90;;;;;;5129440;27;20039;-74
2022/08/11 03:44:23;;;;;;;1999.90;999.90;;;13.90;99.90;;;;;;5100182;27;20464;-74
2022/08/11 03:47:10;;;;;;;1999.90;999.90;;;13.90;99.90;;;;;;5026017;28;20056;-74
2022/08/11 03:50:05;;;;;;;1999.90;999.90;;;13.80;99.90;;;;;;5012209;28;20073;-74
2022/08/11 03:52:58;;;;;;;1999.90;999.90;;;13.80;99.90;;;;;;5022364;28;20053;-74
2022/08/11 03:55:29;;;;;;;1999.90;999.90;;;13.80;99.90;;;;;;5023934;28;20068;-74
2022/08/11 03:58:23;;;;;;;1999.90;999.90;;;13.80;99.90;;;;;;5014025;28;20465;-74
2022/08/11 04:01:27;;;;;;;1999.90;999.90;;;13.70;99.90;;;;;;5014848;28;20055;-74
2022/08/11 04:03:57;;;;;;;1999.90;999.90;;;13.70;99.90;;;;;;5017499;28;20062;-74
2022/08/11 04:06:52;;;;;;;1999.90;999.90;;;13.70;99.90;;;;;;5028139;28;20044;-74
2022/08/11 04:09:54;;;;;;;1999.90;999.90;;;13.70;99.90;;;;;;5019469;28;20375;-74
2022/08/11 04:12:25;;;;;;;1999.90;999.90;;;13.70;99.90;;;;;;5037286;28;20540;-74
2022/08/11 04:18:18;;;;;;;1999.90;999.90;;;13.70;99.90;;;;;;5093569;27;20049;-74
2022/08/11 04:21:24;;;;;;;1999.90;999.90;;;13.70;99.90;;;;;;5107528;27;20035;-74
2022/08/11 04:24:07;;;;;;;1999.90;999.90;;;13.70;99.90;;;;;;5110396;27;20460;-74
2022/08/11 04:26:56;;;;;;;1999.90;999.90;;;13.70;99.90;;;;;;5111121;27;20133;-74
2022/08/11 04:29:50;;;;;;;1999.90;999.90;;;13.80;99.90;;;;;;5125690;27;20031;-74
2022/08/11 04:32:50;;;;;;;1999.90;999.90;;;13.70;99.90;;;;;;5095763;27;20917;-74
2022/08/11 04:35:29;;;;;;;1999.90;999.90;;;13.80;99.90;;;;;;5103926;28;20051;-74
2022/08/11 04:38:13;;;;;;;1999.90;999.90;;;13.80;99.90;;;;;;5111672;27;20448;-74
2022/08/11 04:41:15;;;;;;;1999.90;999.90;;;13.80;99.90;;;;;;5106913;27;20059;-74
2022/08/11 04:44:10;;;;;;;1999.90;999.90;;;13.80;99.90;;;;;;5129397;27;20066;-74
2022/08/11 05:01:39;;;;;;;1999.90;999.90;;;13.80;99.90;;;;;;5115850;27;20050;-74
2022/08/11 05:02:57;;;;;;;1999.90;999.90;;;14.10;99.90;;;;;;5038866;28;20049;-74
2022/08/11 05:05:51;;;;;;;1999.90;999.90;;;14.20;99.90;;;;;;5038235;28;20053;-74
2022/08/11 05:08:25;;;;;;;1999.90;999.90;;;14.30;99.90;;;;;;5028248;28;20212;-74
2022/08/11 05:11:10;;;;;;;1999.90;999.90;;;14.50;99.90;;;;;;5038883;28;20107;-75
2022/08/11 05:36:53;;;;;;;1999.90;999.90;;;15.50;99.90;;;;;;5123745;27;20047;-74
2022/08/11 05:56:53;;;;;;;1999.90;999.90;;;17.40;99.90;;;;;;5115854;27;20054;-75
2022/08/11 05:59:20;;;;;;;1999.90;999.90;;;17.60;99.90;;;;;;5132730;27;20056;-74
2022/08/11 06:01:47;;;;;;;1999.90;999.90;;;17.50;99.90;;;;;;5129292;27;20498;-74
2022/08/11 06:04:31;;;;;;;1999.90;999.90;;;17.50;99.90;;;;;;5130429;27;20050;-75
2022/08/11 06:06:58;;;;;;;1999.90;999.90;;;17.50;99.90;;;;;;5121965;27;20050;-74
2022/08/11 06:09:39;;;;;;;1999.90;999.90;;;17.50;99.90;;;;;;5143294;27;20038;-73
2022/08/11 06:12:16;;;;;;;1999.90;999.90;;;17.50;99.90;;;;;;5127971;27;20028;-73
2022/08/11 06:14:44;;;;;;;1999.90;999.90;;;17.50;99.90;;;;;;5125187;27;20545;-73
2022/08/11 06:17:12;;;;;;;1999.90;999.90;;;17.60;99.90;;;;;;5119300;27;20046;-73
2022/08/11 06:19:45;;;;;;;1999.90;999.90;;;17.60;99.90;;;;;;5111189;28;20495;-73
2022/08/11 06:22:12;;;;;;;1999.90;999.90;;;17.70;99.90;;;;;;5129514;27;20046;-73
2022/08/11 06:24:40;;;;;;;1999.90;999.90;;;17.70;99.90;;;;;;5116281;27;20515;-73
2022/08/11 06:27:07;;;;;;;1999.90;999.90;;;17.80;99.90;;;;;;5114636;27;20043;-73
2022/08/11 06:29:40;;;;;;;1999.90;999.90;;;17.90;99.90;;;;;;5108420;28;20035;-73
2022/08/11 06:32:11;;;;;;;1999.90;999.90;;;18.10;99.90;;;;;;5129079;27;20494;-73
2022/08/11 06:35:08;;;;;;;1999.90;999.90;;;18.60;99.90;;;;;;5112140;27;20048;-73
2022/08/11 06:38:01;;;;;;;1999.90;999.90;;;19.10;99.90;;;;;;5106943;27;20054;-73
2022/08/11 06:41:29;;;;;;;1999.90;999.90;;;19.50;99.90;;;;;;5121212;27;20059;-73
2022/08/11 06:43:55;;;;;;;1999.90;999.90;;;19.60;99.90;;;;;;5125831;27;20046;-73
2022/08/11 06:46:40;;;;;;;1999.90;999.90;;;19.70;99.90;;;;;;5103626;27;20043;-73
2022/08/11 06:51:55;;;;;;;1999.90;999.90;;;19.70;99.90;;;;;;5099119;28;20043;-73
2022/08/11 06:54:22;;;;;;;1999.90;999.90;;;19.70;99.90;;;;;;5127685;27;20046;-73
2022/08/11 07:02:32;;;;;;;1999.90;999.90;;;21.60;99.90;;;;;;5111257;28;20065;-73
2022/08/11 07:05:07;;;;;;;1999.90;999.90;;;23.00;99.90;;;;;;5122518;27;20047;-74
2022/08/11 07:16:57;;;;;;;1999.90;999.90;;;25.80;99.90;;;;;;5122797;27;20123;-74
2022/08/11 07:30:48;;;;;;;1999.90;999.90;;;24.50;99.90;;;;;;5129075;27;20126;-74
2022/08/11 07:33:20;;;;;;;1999.90;999.90;;;23.70;99.90;;;;;;5132718;27;20084;-74
2022/08/11 07:35:48;;;;;;;;;;;23.30;99.90;;;;;;5132749;27;20383;-74
2022/08/11 07:38:20;;;;;;;1999.90;999.90;;;23.10;99.90;;;;;;5119073;27;20370;-74
2022/08/11 07:40:47;;;;;;;1999.90;999.90;;;23.00;99.90;;;;;;5108445;27;20089;-74
2022/08/11 07:43:13;;;;;;;1999.90;999.90;;;22.90;99.90;;;;;;5132439;27;20499;-74
2022/08/11 07:54:05;;;;;;;1999.90;999.90;;;22.60;99.90;;;;;;5132434;27;20043;-74
2022/08/11 07:56:35;;;;;;;1999.90;999.90;;;22.60;99.90;;;;;;5132141;27;20058;-74
2022/08/11 08:18:25;;;;;;;1999.90;999.90;;;22.90;99.90;;;;;;5129841;27;20051;-74
2022/08/11 08:20:51;;;;;;;1999.90;999.90;;;22.90;99.90;;;;;;5120410;27;20057;-74
2022/08/11 08:23:33;;;;;;;1999.90;999.90;;;23.00;99.90;;;;;;5118758;27;20552;-74
2022/08/11 08:26:04;;;;;;;1999.90;999.90;;;23.00;99.90;;;;;;5129201;27;20043;-73
2022/08/11 08:28:32;;;;;;;1999.90;999.90;;;23.10;99.90;;;;;;5111938;27;20478;-74
2022/08/11 08:30:58;;;;;;;1999.90;999.90;;;23.20;99.90;;;;;;5127435;27;20066;-74
2022/08/11 08:33:31;;;;;;;1999.90;999.90;;;23.30;99.90;;;;;;5128389;27;20035;-74
2022/08/11 08:36:11;;;;;;;1999.90;999.90;;;23.40;99.90;;;;;;5129130;27;20065;-74
2022/08/11 08:38:53;;;;;;;1999.90;999.90;;;23.60;99.90;;;;;;5128838;27;20039;-74
2022/08/11 08:41:21;;;;;;;1999.90;999.90;;;23.70;99.90;;;;;;5130316;27;20089;-74
2022/08/11 08:43:53;;;;;;;1999.90;999.90;;;23.80;99.90;;;;;;5131013;27;20039;-74
2022/08/11 08:46:24;;;;;;;1999.90;999.90;;;23.90;99.90;;;;;;5131734;27;20607;-74
2022/08/11 08:48:51;;;;;;;1999.90;999.90;;;24.20;99.90;;;;;;5139749;27;20054;-74
2022/08/11 08:51:35;;;;;;;1999.90;999.90;;;25.00;99.90;;;;;;5123683;27;20031;-74
2022/08/11 08:54:04;;;;;;;1999.90;999.90;;;26.00;99.90;;;;;;5129807;27;20050;-74
2022/08/11 08:56:33;;;;;;;1999.90;999.90;;;27.30;99.90;;;;;;5097405;27;20047;-73
2022/08/11 08:59:01;;;;;;;1999.90;999.90;;;28.10;97.60;;;;;;5127514;27;20491;-74
2022/08/11 09:01:49;;;;;;;1999.90;999.90;;;28.80;97.40;;;;;;5118062;27;20114;-75
2022/08/11 09:04:18;;;;;;;1999.90;999.90;;;29.40;93.50;;;;;;5121917;27;20050;-74
2022/08/11 09:06:46;;;;;;;1999.90;999.90;;;29.90;94.10;;;;;;5128074;27;20483;-74
2022/08/11 09:09:13;;;;;;;1999.90;999.90;;;30.20;91.90;;;;;;5128952;27;20039;-74
2022/08/11 09:11:49;;;;;;;1999.90;999.90;;;30.60;89.80;;;;;;5134440;27;20135;-74
2022/08/11 09:14:24;;;;;;;1999.90;999.90;;;31.20;89.70;;;;;;5110489;27;20104;-74
2022/08/11 09:16:51;;;;;;;1999.90;999.90;;;31.80;82.30;;;;;;5106916;27;20125;-74
2022/08/11 09:19:20;;;;;;;1999.90;999.90;;;32.20;81.40;;;;;;5117912;27;20104;-74
2022/08/11 09:27:20;;;;;;;1999.90;999.90;;;32.60;77.50;;;;;;5120084;27;20428;-74
2022/08/11 09:29:46;;;;;;;1999.90;999.90;;;32.40;71.50;;;;;;5130474;27;20031;-74
2022/08/11 09:32:13;;;;;;;1999.90;999.90;;;32.30;71.70;;;;;;5128373;27;20035;-74
2022/08/11 09:34:40;;;;;;;1999.90;999.90;;;32.40;70.10;;;;;;5132470;27;20042;-74
2022/08/11 09:45:24;;;;;;;1999.90;999.90;;;32.80;68.70;;;;;;5132139;27;20127;-73
2022/08/11 09:47:50;;;;;;;1999.90;999.90;;;32.40;66.10;;;;;;5091345;27;20046;-74
2022/08/11 09:50:17;;;;;;;1999.90;999.90;;;32.30;63.90;;;;;;5132156;27;20050;-74
2022/08/11 09:52:47;;;;;;;1999.90;999.90;;;32.20;65.20;;;;;;5129247;27;20042;-74
2022/08/11 09:55:14;;;;;;;1999.90;999.90;;;32.30;63.90;;;;;;5109363;27;20125;-74
2022/08/11 09:58:27;;;;;;;1999.90;999.90;;;32.60;61.20;;;;;;5132927;27;20074;-74
2022/08/11 10:00:39;;;;;;;1999.90;999.90;;;32.60;59.60;;;;;;5116955;27;20050;-74
2022/08/11 10:03:36;;;;;;;1999.90;999.90;;;32.20;58.60;;;;;;5131709;27;20042;-74
2022/08/11 10:08:51;;;;;;;1999.90;999.90;;;31.90;61.00;;;;;;5129565;27;20070;-74
2022/08/11 10:11:22;;;;;;;1999.90;999.90;;;32.10;61.70;;;;;;5126673;27;20495;-74
2022/08/11 10:16:40;;;;;;;1999.90;999.90;;;32.20;57.70;;;;;;5132500;27;20066;-74
2022/08/11 10:19:08;;;;;;;1999.90;999.90;;;31.90;58.80;;;;;;5112972;27;20051;-75
2022/08/11 10:21:42;;;;;;;1999.90;999.90;;;31.90;56.80;;;;;;5121885;27;20130;-75
2022/08/11 10:27:01;;;;;;;1999.90;999.90;;;32.40;59.00;;;;;;5121599;27;20053;-74
2022/08/11 10:35:15;;;;;;;1999.90;999.90;;;32.50;53.70;;;;;;5128240;27;20057;-74
2022/08/11 10:37:44;;;;;;;1999.90;999.90;;;32.20;54.90;;;;;;5129352;27;20035;-74
2022/08/11 10:40:14;;;;;;;1999.90;999.90;;;32.20;53.90;;;;;;5088671;28;20067;-74
2022/08/11 10:48:11;;;;;;;1999.90;999.90;;;32.10;53.80;;;;;;5114848;27;20043;-74
2022/08/11 10:58:55;;;;;;;1999.90;999.90;;;32.50;51.70;;;;;;5128793;27;20122;-74
2022/08/11 11:01:30;;;;;;;1999.90;999.90;;;32.50;55.00;;;;;;5109457;27;20036;-74
2022/08/11 11:04:10;;;;;;;1999.90;999.90;;;32.50;53.10;;;;;;5130342;27;20077;-75
2022/08/11 11:07:02;;;;;;;1999.90;999.90;;;32.60;52.50;;;;;;5132313;27;20559;-74
2022/08/11 11:09:36;;;;;;;1999.90;999.90;;;32.50;51.40;;;;;;5123303;27;20582;-74
2022/08/11 11:18:00;;;;;;;1999.90;999.90;;;32.10;51.90;;;;;;5126300;27;20419;-74
2022/08/11 11:20:29;;;;;;;1999.90;999.90;;;32.10;50.30;;;;;;5091383;27;20050;-75
2022/08/11 11:23:03;;;;;;;1999.90;999.90;;;32.10;49.70;;;;;;5122485;27;20043;-74
2022/08/11 11:26:06;;;;;;;1999.90;999.90;;;31.90;51.40;;;;;;5108907;27;20120;-74
2022/08/11 11:29:07;;;;;;;1999.90;999.90;;;31.90;52.90;;;;;;5128944;27;20087;-74
2022/08/11 11:31:32;;;;;;;1999.90;999.90;;;32.10;51.00;;;;;;5120563;27;20467;-74
2022/08/11 11:34:10;;;;;;;1999.90;999.90;;;32.20;52.50;;;;;;5129796;27;20047;-74
2022/08/11 11:36:53;;;;;;;1999.90;999.90;;;32.40;51.50;;;;;;5117963;27;20058;-74
2022/08/11 11:39:21;;;;;;;1999.90;999.90;;;32.60;51.80;;;;;;5123533;27;20047;-74
2022/08/11 11:41:53;;;;;;;1999.90;999.90;;;32.60;51.90;;;;;;5110604;27;20186;-74
2022/08/11 11:44:23;;;;;;;1999.90;999.90;;;32.80;50.70;;;;;;5108202;27;20043;-74
2022/08/11 11:46:51;;;;;;;1999.90;999.90;;;32.80;50.70;;;;;;5103780;28;20043;-74
2022/08/11 11:49:22;;;;;;;1999.90;999.90;;;32.90;48.20;;;;;;5128238;27;20517;-75
2022/08/11 11:51:51;;;;;;;1999.90;999.90;;;32.50;48.20;;;;;;5107904;27;20574;-73
2022/08/11 11:54:22;;;;;;;1999.90;999.90;;;32.30;49.70;;;;;;5112489;27;20323;-74
2022/08/11 11:56:52;;;;;;;1999.90;999.90;;;32.20;50.40;;;;;;5126491;27;20146;-74
2022/08/11 12:02:06;;;;;;;1999.90;999.90;;;32.10;50.20;;;;;;5101295;27;20127;-74
2022/08/11 12:04:35;;;;;;;1999.90;999.90;;;32.10;49.80;;;;;;5113175;27;20102;-74
2022/08/11 12:09:46;;;;;;;1999.90;999.90;;;32.30;49.10;;;;;;5126082;27;20054;-74
2022/08/11 12:14:57;;;;;;;1999.90;999.90;;;32.20;47.90;;;;;;5130295;27;20055;-74
2022/08/11 12:17:23;;;;;;;1999.90;999.90;;;32.30;48.40;;;;;;5131008;27;20039;-73
2022/08/11 12:19:49;;;;;;;1999.90;999.90;;;32.30;48.60;;;;;;5123779;27;20043;-74
2022/08/11 12:27:46;;;;;;;1999.90;999.90;;;32.40;49.70;;;;;;5129277;27;20042;-74
2022/08/11 12:30:12;;;;;;;1999.90;999.90;;;32.60;49.80;;;;;;5126200;27;20107;-74
2022/08/11 12:32:39;;;;;;;1999.90;999.90;;;32.70;46.90;;;;;;5128567;27;20033;-74
2022/08/11 12:35:06;;;;;;;1999.90;999.90;;;32.40;46.50;;;;;;5131115;27;20035;-74
2022/08/11 12:37:47;;;;;;;1999.90;999.90;;;32.30;48.40;;;;;;5101735;27;20079;-74
2022/08/11 12:45:47;;;;;;;1999.90;999.90;;;32.90;47.10;;;;;;5108921;27;20059;-73
2022/08/11 12:54:11;;;;;;;1999.90;999.90;;;32.80;46.40;;;;;;5110160;27;20061;-74
2022/08/11 13:05:06;;;;;;;1999.90;999.90;;;32.80;46.20;;;;;;5123567;27;20137;-74
2022/08/11 13:07:33;;;;;;;1999.90;999.90;;;32.60;47.80;;;;;;5127901;27;20134;-73
2022/08/11 13:10:02;;;;;;;1999.90;999.90;;;32.60;45.90;;;;;;5130020;27;20046;-74
2022/08/11 13:12:47;;;;;;;1999.90;999.90;;;32.60;46.70;;;;;;5129103;27;20084;-74
2022/08/11 13:15:14;;;;;;;1999.90;999.90;;;32.60;48.00;;;;;;5129542;27;20043;-74
2022/08/11 13:17:41;;;;;;;1999.90;999.90;;;32.80;46.40;;;;;;5130112;27;20506;-74
2022/08/11 13:20:11;;;;;;;1999.90;999.90;;;32.80;47.20;;;;;;5105731;27;20031;-73
2022/08/11 13:22:37;;;;;;;1999.90;999.90;;;32.90;46.70;;;;;;5126161;27;20035;-74
2022/08/11 13:25:04;;;;;;;1999.90;999.90;;;32.90;45.90;;;;;;5125188;27;20047;-74
2022/08/11 13:27:30;;;;;;;1999.90;999.90;;;33.00;47.40;;;;;;5121987;27;20125;-74
2022/08/11 13:32:43;;;;;;;1999.90;999.90;;;33.00;46.60;;;;;;5129077;27;20039;-74
2022/08/11 13:35:13;;;;;;;1999.90;999.90;;;32.90;48.60;;;;;;5128252;27;20050;-74
2022/08/11 13:37:40;;;;;;;1999.90;999.90;;;33.00;46.50;;;;;;5123549;27;20046;-74
2022/08/11 13:40:08;;;;;;;1999.90;999.90;;;32.80;46.60;;;;;;5112656;27;20406;-74
2022/08/11 13:42:34;;;;;;;1999.90;999.90;;;32.80;46.90;;;;;;5129520;27;20440;-74
2022/08/11 13:45:00;;;;;;;1999.90;999.90;;;33.00;49.60;;;;;;5105740;27;20046;-73
2022/08/11 13:47:27;;;;;;;1999.90;999.90;;;33.00;46.90;;;;;;5108230;27;20046;-74
2022/08/11 13:49:54;;;;;;;1999.90;999.90;;;32.80;48.90;;;;;;5114799;27;20043;-74
2022/08/11 13:52:20;;;;;;;1999.90;999.90;;;32.90;48.80;;;;;;5115664;27;20039;-73
2022/08/11 13:54:47;;;;;;;1999.90;999.90;;;33.00;47.00;;;;;;5100895;27;20058;-74
2022/08/11 13:57:14;;;;;;;1999.90;999.90;;;32.80;46.70;;;;;;5099678;27;20122;-74
2022/08/11 13:59:41;;;;;;;1999.90;999.90;;;32.80;47.70;;;;;;5120145;27;20039;-74
2022/08/11 14:02:15;;;;;;;1999.90;999.90;;;32.80;47.10;;;;;;5123428;27;20045;-74
2022/08/11 14:04:56;;;;;;;1999.90;999.90;;;32.80;49.00;;;;;;5121630;27;20035;-74
2022/08/11 14:07:26;;;;;;;1999.90;999.90;;;33.00;47.90;;;;;;5120114;27;20122;-74
2022/08/11 14:09:59;;;;;;;1999.90;999.90;;;33.10;47.90;;;;;;5117908;27;20046;-74
2022/08/11 14:15:21;;;;;;;1999.90;999.90;;;33.30;47.70;;;;;;5118261;27;20047;-74
2022/08/11 14:17:53;;;;;;;1999.90;999.90;;;33.30;47.20;;;;;;5094519;27;20035;-74
2022/08/11 14:20:20;;;;;;;1999.90;999.90;;;33.30;47.00;;;;;;5124480;27;20054;-73
2022/08/11 14:22:48;;;;;;;1999.90;999.90;;;33.30;46.20;;;;;;5126170;27;20366;-74
2022/08/11 14:25:15;;;;;;;1999.90;999.90;;;33.00;45.90;;;;;;5113579;28;20039;-74
2022/08/11 14:27:43;;;;;;;1999.90;999.90;;;33.10;46.50;;;;;;5112511;27;20052;-71
2022/08/11 14:30:53;;;;;;;1999.90;999.90;;;33.20;46.40;;;;;;5086202;28;20050;-72
2022/08/11 14:32:56;;;;;;;1999.90;999.90;;;33.10;45.80;;;;;;5096985;28;20059;-72
2022/08/11 14:35:26;;;;;;;1999.90;999.90;;;33.00;45.90;;;;;;5124133;27;20391;-72
2022/08/11 14:37:52;;;;;;;1999.90;999.90;;;32.90;47.40;;;;;;5124991;27;20411;-72
2022/08/11 14:48:31;;;;;;;1999.90;999.90;;;32.80;45.20;;;;;;5125223;27;20039;-72
2022/08/11 14:50:57;;;;;;;1999.90;999.90;;;32.70;48.50;;;;;;5090302;27;20139;-72
2022/08/11 14:53:24;;;;;;;1999.90;999.90;;;32.80;49.10;;;;;;5122079;27;20050;-72
2022/08/11 14:58:36;;;;;;;1999.90;999.90;;;33.00;47.10;;;;;;5121509;27;20121;-72
2022/08/11 15:03:05;;;;;;;1999.90;999.90;;;33.10;47.00;;;;;;5132491;27;20126;-72
2022/08/11 15:03:51;;;;;;;1999.90;999.90;;;33.00;46.70;;;;;;5124039;27;20599;-72
2022/08/11 15:06:17;;;;;;;1999.90;999.90;;;32.70;46.10;;;;;;5130145;27;20102;-71
2022/08/11 15:08:55;;;;;;;1999.90;999.90;;;32.50;47.10;;;;;;5126802;27;20046;-74
2022/08/11 15:14:11;;;;;;;1999.90;999.90;;;32.10;47.40;;;;;;5106666;27;20054;-74
2022/08/11 15:19:24;;;;;;;1999.90;999.90;;;31.90;47.30;;;;;;5126300;27;20051;-74
2022/08/11 15:24:35;;;;;;;1999.90;999.90;;;31.50;48.90;;;;;;5107805;27;20066;-74
2022/08/11 15:38:13;;;;;;;1999.90;999.90;;;31.10;50.50;;;;;;5127129;27;20451;-74
2022/08/11 15:46:32;;;;;;;1999.90;999.90;;;31.00;49.80;;;;;;5124829;27;20050;-74
2022/08/11 15:49:36;;;;;;;1999.90;999.90;;;30.90;51.10;;;;;;5125723;27;20046;-74
2022/08/11 15:52:16;;;;;;;1999.90;999.90;;;30.90;51.50;;;;;;5102804;27;20039;-74
2022/08/11 15:54:45;;;;;;;1999.90;999.90;;;30.90;52.10;;;;;;5106315;27;20035;-74
2022/08/11 16:04:09;;;;;;;1999.90;999.90;;;31.00;51.20;;;;;;5129303;27;20386;-74
2022/08/11 16:05:21;;;;;;;1999.90;999.90;;;31.00;50.80;;;;;;5125728;27;20051;-74
2022/08/11 16:07:50;;;;;;;1999.90;999.90;;;30.80;51.30;;;;;;5123837;27;20035;-74
2022/08/11 16:10:20;;;;;;;1999.90;999.90;;;30.80;51.10;;;;;;5129053;27;20043;-73
2022/08/11 16:18:58;;;;;;;1999.90;999.90;;;30.30;52.60;;;;;;5074653;28;20097;-74
2022/08/11 16:21:32;;;;;;;1999.90;999.90;;;30.40;52.90;;;;;;5077043;28;20514;-74
2022/08/11 16:23:59;;;;;;;1999.90;999.90;;;30.40;53.10;;;;;;5071714;28;20036;-74
2022/08/11 16:26:28;;;;;;;1999.90;999.90;;;30.50;53.70;;;;;;5077961;28;20610;-74
2022/08/11 16:28:59;;;;;;;1999.90;999.90;;;30.60;52.80;;;;;;5074588;28;20039;-74
2022/08/11 16:31:26;;;;;;;1999.90;999.90;;;30.60;52.60;;;;;;5077727;28;20047;-74
2022/08/11 16:33:53;;;;;;;1999.90;999.90;;;30.50;53.50;;;;;;5080577;28;20097;-74
2022/08/11 16:39:07;;;;;;;1999.90;999.90;;;30.30;52.50;;;;;;5070868;28;20145;-74
2022/08/11 16:47:10;;;;;;;1999.90;999.90;;;29.70;56.20;;;;;;5079143;28;20056;-75
2022/08/11 16:49:52;;;;;;;1999.90;999.90;;;29.40;53.90;;;;;;5082598;28;20081;-74
2022/08/11 16:52:18;;;;;;;1999.90;999.90;;;29.40;55.10;;;;;;5091288;27;20566;-74
2022/08/11 16:54:47;;;;;;;1999.90;999.90;;;29.40;55.10;;;;;;5124046;27;20043;-74
2022/08/11 17:00:07;;;;;;;1999.90;999.90;;;29.50;54.30;;;;;;5106293;27;20055;-73
2022/08/11 17:13:53;;;;;;;1999.90;999.90;;;28.50;56.10;;;;;;5107164;27;20047;-75
2022/08/11 17:16:26;;;;;;;1999.90;999.90;;;28.60;56.30;;;;;;5123942;27;20039;-74
2022/08/11 17:18:58;;;;;;;1999.90;999.90;;;28.70;56.80;;;;;;5107482;27;20454;-75
2022/08/11 17:21:35;;;;;;;1999.90;999.90;;;28.80;57.10;;;;;;5089466;27;20083;-74
2022/08/11 17:24:13;;;;;;;1999.90;999.90;;;28.80;57.30;;;;;;5127088;27;20074;-74
2022/08/11 17:26:58;;;;;;;1999.90;999.90;;;28.90;56.60;;;;;;5123986;27;20053;-75
2022/08/11 17:29:29;;;;;;;1999.90;999.90;;;28.90;57.80;;;;;;5140514;27;20038;-74
2022/08/11 17:37:29;;;;;;;1999.90;999.90;;;28.80;57.40;;;;;;5131636;27;20377;-74
2022/08/11 17:39:58;;;;;;;1999.90;999.90;;;28.80;57.40;;;;;;5110442;27;20059;-74
2022/08/11 17:50:45;;;;;;;1999.90;999.90;;;28.40;57.80;;;;;;5133358;27;20104;-74
2022/08/11 18:01:45;;;;;;;1999.90;999.90;;;27.40;59.10;;;;;;5144268;27;20484;-75
2022/08/11 18:04:13;;;;;;;1999.90;999.90;;;27.00;59.80;;;;;;5139966;27;20070;-74
2022/08/11 18:06:39;;;;;;;1999.90;999.90;;;26.70;61.50;;;;;;5117652;27;20060;-74
